Crapo, Maryland
Current Conditions -  °F | °C
As of 6:52 AM on Thursday 23 Oct 2014 (Local Time) from KNHK Reporting Station
Overcast Overcast  
Wind Chill: 54°   Ceiling: 4000
Heat Index: 54°   Visibility: 10mi
Dew Point: 43°   Wind: 25mph
Humidity: 66%   Direction: 320°NW
Pressure: 29.85"   Gusts: 31mph
Location:  38.32°N, 76.13°W
Report Text: KNHK 231052Z 32022G27KT 10SM OVC040 12/06 A2985 RMK AO2 PK WND 30031/1004 SLP107 T01220061
Loading
Personal Weather Stations






























Interactive Weather Map
Tropical Storm Tracking
New forecast layout! Learn more

10-Day Weather Forecast

Advertisements
Track Severe Weather on mobile